sensor_id;sensor_type;location;lat;lon;timestamp;P1;durP1;ratioP1;P2;durP2;ratioP2
13799;SDS011;6971;50.028;9.258;2022-11-20T00:02:32;34.10;;;21.13;;
13799;SDS011;6971;50.028;9.258;2022-11-20T00:07:33;34.53;;;22.67;;
13799;SDS011;6971;50.028;9.258;2022-11-20T00:12:34;34.73;;;22.50;;
13799;SDS011;6971;50.028;9.258;2022-11-20T00:17:35;36.40;;;22.53;;
13799;SDS011;6971;50.028;9.258;2022-11-20T00:22:36;49.03;;;32.30;;
13799;SDS011;6971;50.028;9.258;2022-11-20T00:27:37;40.77;;;24.47;;
13799;SDS011;6971;50.028;9.258;2022-11-20T00:32:38;36.33;;;21.23;;
13799;SDS011;6971;50.028;9.258;2022-11-20T00:37:38;34.77;;;21.83;;
13799;SDS011;6971;50.028;9.258;2022-11-20T00:42:39;38.87;;;23.77;;
13799;SDS011;6971;50.028;9.258;2022-11-20T00:47:40;35.33;;;22.30;;
13799;SDS011;6971;50.028;9.258;2022-11-20T00:52:41;36.60;;;22.93;;
13799;SDS011;6971;50.028;9.258;2022-11-20T00:57:44;36.03;;;22.30;;
13799;SDS011;6971;50.028;9.258;2022-11-20T01:02:44;48.37;;;28.10;;
13799;SDS011;6971;50.028;9.258;2022-11-20T01:07:45;37.33;;;23.67;;
13799;SDS011;6971;50.028;9.258;2022-11-20T01:12:46;38.20;;;22.73;;
13799;SDS011;6971;50.028;9.258;2022-11-20T01:18:07;41.20;;;23.87;;
13799;SDS011;6971;50.028;9.258;2022-11-20T01:23:08;38.40;;;22.83;;
13799;SDS011;6971;50.028;9.258;2022-11-20T01:28:08;38.13;;;23.33;;
13799;SDS011;6971;50.028;9.258;2022-11-20T01:33:09;35.60;;;23.07;;
13799;SDS011;6971;50.028;9.258;2022-11-20T01:38:10;37.63;;;22.60;;
13799;SDS011;6971;50.028;9.258;2022-11-20T01:43:18;37.30;;;22.63;;
13799;SDS011;6971;50.028;9.258;2022-11-20T01:48:37;34.30;;;21.83;;
13799;SDS011;6971;50.028;9.258;2022-11-20T01:53:40;36.00;;;22.40;;
13799;SDS011;6971;50.028;9.258;2022-11-20T01:58:56;38.07;;;22.87;;
13799;SDS011;6971;50.028;9.258;2022-11-20T02:04:01;42.13;;;25.67;;
13799;SDS011;6971;50.028;9.258;2022-11-20T02:09:02;41.80;;;25.43;;
13799;SDS011;6971;50.028;9.258;2022-11-20T02:14:03;45.30;;;26.03;;
13799;SDS011;6971;50.028;9.258;2022-11-20T02:19:05;45.73;;;25.90;;
13799;SDS011;6971;50.028;9.258;2022-11-20T02:24:14;36.97;;;22.50;;
13799;SDS011;6971;50.028;9.258;2022-11-20T02:29:35;32.33;;;20.77;;
13799;SDS011;6971;50.028;9.258;2022-11-20T02:34:52;32.77;;;21.60;;
13799;SDS011;6971;50.028;9.258;2022-11-20T02:40:05;33.87;;;21.87;;
13799;SDS011;6971;50.028;9.258;2022-11-20T02:45:06;31.93;;;19.93;;
13799;SDS011;6971;50.028;9.258;2022-11-20T02:50:08;40.17;;;25.53;;
13799;SDS011;6971;50.028;9.258;2022-11-20T02:55:08;60.53;;;33.77;;
13799;SDS011;6971;50.028;9.258;2022-11-20T03:00:13;34.77;;;20.90;;
13799;SDS011;6971;50.028;9.258;2022-11-20T03:05:14;32.40;;;20.70;;
13799;SDS011;6971;50.028;9.258;2022-11-20T03:10:15;36.53;;;21.13;;
13799;SDS011;6971;50.028;9.258;2022-11-20T03:15:15;34.27;;;21.47;;
13799;SDS011;6971;50.028;9.258;2022-11-20T03:20:16;33.37;;;21.10;;
13799;SDS011;6971;50.028;9.258;2022-11-20T03:25:17;37.27;;;21.03;;
13799;SDS011;6971;50.028;9.258;2022-11-20T03:30:18;36.43;;;21.13;;
13799;SDS011;6971;50.028;9.258;2022-11-20T03:35:19;34.60;;;20.03;;
13799;SDS011;6971;50.028;9.258;2022-11-20T03:40:20;33.10;;;19.67;;
13799;SDS011;6971;50.028;9.258;2022-11-20T03:45:20;37.43;;;20.00;;
13799;SDS011;6971;50.028;9.258;2022-11-20T03:50:21;34.50;;;21.70;;
13799;SDS011;6971;50.028;9.258;2022-11-20T03:55:22;35.40;;;21.27;;
13799;SDS011;6971;50.028;9.258;2022-11-20T04:00:23;34.80;;;20.53;;
13799;SDS011;6971;50.028;9.258;2022-11-20T04:05:24;32.63;;;19.23;;
13799;SDS011;6971;50.028;9.258;2022-11-20T04:10:25;38.17;;;21.27;;
13799;SDS011;6971;50.028;9.258;2022-11-20T04:15:40;33.60;;;20.90;;
13799;SDS011;6971;50.028;9.258;2022-11-20T04:20:40;33.47;;;20.33;;
13799;SDS011;6971;50.028;9.258;2022-11-20T04:25:41;38.50;;;21.60;;
13799;SDS011;6971;50.028;9.258;2022-11-20T04:30:42;35.80;;;21.33;;
13799;SDS011;6971;50.028;9.258;2022-11-20T04:35:43;34.67;;;18.97;;
13799;SDS011;6971;50.028;9.258;2022-11-20T04:40:46;32.97;;;20.33;;
13799;SDS011;6971;50.028;9.258;2022-11-20T04:45:54;34.83;;;20.27;;
13799;SDS011;6971;50.028;9.258;2022-11-20T04:50:57;38.50;;;21.43;;
13799;SDS011;6971;50.028;9.258;2022-11-20T04:56:08;37.20;;;20.63;;
13799;SDS011;6971;50.028;9.258;2022-11-20T05:01:21;34.50;;;20.87;;
13799;SDS011;6971;50.028;9.258;2022-11-20T05:06:23;34.73;;;20.67;;
13799;SDS011;6971;50.028;9.258;2022-11-20T05:11:24;37.70;;;22.50;;
13799;SDS011;6971;50.028;9.258;2022-11-20T05:16:25;37.77;;;20.40;;
13799;SDS011;6971;50.028;9.258;2022-11-20T05:21:39;35.17;;;20.03;;
13799;SDS011;6971;50.028;9.258;2022-11-20T05:26:40;33.77;;;20.13;;
13799;SDS011;6971;50.028;9.258;2022-11-20T05:31:41;33.53;;;20.57;;
13799;SDS011;6971;50.028;9.258;2022-11-20T05:36:41;39.03;;;22.27;;
13799;SDS011;6971;50.028;9.258;2022-11-20T05:41:42;32.77;;;19.27;;
13799;SDS011;6971;50.028;9.258;2022-11-20T05:46:43;31.80;;;18.47;;
13799;SDS011;6971;50.028;9.258;2022-11-20T05:51:43;30.63;;;18.77;;
13799;SDS011;6971;50.028;9.258;2022-11-20T05:56:44;34.93;;;19.50;;
13799;SDS011;6971;50.028;9.258;2022-11-20T06:01:44;30.43;;;18.23;;
13799;SDS011;6971;50.028;9.258;2022-11-20T06:06:45;30.60;;;17.87;;
13799;SDS011;6971;50.028;9.258;2022-11-20T06:11:46;37.73;;;20.63;;
13799;SDS011;6971;50.028;9.258;2022-11-20T06:17:06;36.97;;;22.07;;
13799;SDS011;6971;50.028;9.258;2022-11-20T06:22:07;39.43;;;21.97;;
13799;SDS011;6971;50.028;9.258;2022-11-20T06:27:07;33.37;;;20.53;;
13799;SDS011;6971;50.028;9.258;2022-11-20T06:32:08;31.50;;;18.90;;
13799;SDS011;6971;50.028;9.258;2022-11-20T06:37:08;34.77;;;19.93;;
13799;SDS011;6971;50.028;9.258;2022-11-20T06:42:09;32.53;;;19.03;;
13799;SDS011;6971;50.028;9.258;2022-11-20T06:47:10;31.73;;;18.47;;
13799;SDS011;6971;50.028;9.258;2022-11-20T06:52:10;32.20;;;19.27;;
13799;SDS011;6971;50.028;9.258;2022-11-20T06:57:11;30.70;;;17.93;;
13799;SDS011;6971;50.028;9.258;2022-11-20T07:02:11;36.00;;;18.77;;
13799;SDS011;6971;50.028;9.258;2022-11-20T07:07:12;40.90;;;20.30;;
13799;SDS011;6971;50.028;9.258;2022-11-20T07:12:13;40.10;;;20.90;;
13799;SDS011;6971;50.028;9.258;2022-11-20T07:17:14;40.87;;;21.40;;
13799;SDS011;6971;50.028;9.258;2022-11-20T07:22:14;50.80;;;26.23;;
13799;SDS011;6971;50.028;9.258;2022-11-20T07:27:15;46.27;;;21.83;;
13799;SDS011;6971;50.028;9.258;2022-11-20T07:32:15;43.77;;;22.33;;
13799;SDS011;6971;50.028;9.258;2022-11-20T07:37:16;41.87;;;20.83;;
13799;SDS011;6971;50.028;9.258;2022-11-20T07:42:17;49.13;;;23.83;;
13799;SDS011;6971;50.028;9.258;2022-11-20T07:47:17;58.23;;;26.10;;
13799;SDS011;6971;50.028;9.258;2022-11-20T07:52:24;44.53;;;21.77;;
13799;SDS011;6971;50.028;9.258;2022-11-20T07:57:25;38.43;;;19.60;;
13799;SDS011;6971;50.028;9.258;2022-11-20T08:02:26;35.93;;;18.50;;
13799;SDS011;6971;50.028;9.258;2022-11-20T08:07:26;34.90;;;17.37;;
13799;SDS011;6971;50.028;9.258;2022-11-20T08:12:27;37.83;;;18.50;;
13799;SDS011;6971;50.028;9.258;2022-11-20T08:17:51;48.93;;;24.77;;
13799;SDS011;6971;50.028;9.258;2022-11-20T08:22:56;34.07;;;16.20;;
13799;SDS011;6971;50.028;9.258;2022-11-20T08:27:58;26.93;;;15.00;;
13799;SDS011;6971;50.028;9.258;2022-11-20T08:33:00;24.37;;;13.00;;
13799;SDS011;6971;50.028;9.258;2022-11-20T08:38:11;66.70;;;30.37;;
13799;SDS011;6971;50.028;9.258;2022-11-20T08:43:12;57.87;;;27.07;;
13799;SDS011;6971;50.028;9.258;2022-11-20T08:48:12;28.87;;;18.77;;
13799;SDS011;6971;50.028;9.258;2022-11-20T08:53:22;61.00;;;36.70;;
13799;SDS011;6971;50.028;9.258;2022-11-20T08:58:23;27.10;;;17.03;;
13799;SDS011;6971;50.028;9.258;2022-11-20T09:03:24;19.83;;;13.00;;
13799;SDS011;6971;50.028;9.258;2022-11-20T09:08:40;31.97;;;15.63;;
13799;SDS011;6971;50.028;9.258;2022-11-20T09:13:40;35.33;;;21.97;;
13799;SDS011;6971;50.028;9.258;2022-11-20T09:18:42;34.20;;;20.97;;
13799;SDS011;6971;50.028;9.258;2022-11-20T09:23:43;30.93;;;19.50;;
13799;SDS011;6971;50.028;9.258;2022-11-20T09:28:44;33.27;;;20.37;;
13799;SDS011;6971;50.028;9.258;2022-11-20T09:33:45;34.03;;;18.53;;
13799;SDS011;6971;50.028;9.258;2022-11-20T09:38:46;33.90;;;18.70;;
13799;SDS011;6971;50.028;9.258;2022-11-20T09:49:07;33.50;;;17.53;;
13799;SDS011;6971;50.028;9.258;2022-11-20T09:54:18;36.30;;;18.03;;
13799;SDS011;6971;50.028;9.258;2022-11-20T09:59:27;37.00;;;20.70;;
13799;SDS011;6971;50.028;9.258;2022-11-20T10:04:34;39.33;;;21.30;;
13799;SDS011;6971;50.028;9.258;2022-11-20T10:09:40;37.13;;;22.30;;
13799;SDS011;6971;50.028;9.258;2022-11-20T10:25:20;45.30;;;24.70;;
13799;SDS011;6971;50.028;9.258;2022-11-20T10:30:25;46.37;;;25.40;;
13799;SDS011;6971;50.028;9.258;2022-11-20T10:35:28;42.50;;;24.60;;
13799;SDS011;6971;50.028;9.258;2022-11-20T10:40:39;42.83;;;22.13;;
13799;SDS011;6971;50.028;9.258;2022-11-20T10:45:49;42.97;;;23.90;;
13799;SDS011;6971;50.028;9.258;2022-11-20T10:56:15;38.67;;;22.17;;
13799;SDS011;6971;50.028;9.258;2022-11-20T11:01:40;43.43;;;25.43;;
13799;SDS011;6971;50.028;9.258;2022-11-20T11:06:43;32.50;;;19.93;;
13799;SDS011;6971;50.028;9.258;2022-11-20T11:11:49;35.30;;;21.57;;
13799;SDS011;6971;50.028;9.258;2022-11-20T11:16:57;46.27;;;30.17;;
13799;SDS011;6971;50.028;9.258;2022-11-20T11:21:58;41.33;;;28.07;;
13799;SDS011;6971;50.028;9.258;2022-11-20T11:27:03;37.53;;;25.23;;
13799;SDS011;6971;50.028;9.258;2022-11-20T11:32:20;31.53;;;20.57;;
13799;SDS011;6971;50.028;9.258;2022-11-20T11:37:32;33.87;;;24.37;;
13799;SDS011;6971;50.028;9.258;2022-11-20T11:42:35;28.67;;;17.43;;
13799;SDS011;6971;50.028;9.258;2022-11-20T12:03:04;31.00;;;19.83;;
13799;SDS011;6971;50.028;9.258;2022-11-20T12:08:31;29.87;;;18.07;;
13799;SDS011;6971;50.028;9.258;2022-11-20T12:13:44;28.60;;;18.30;;
13799;SDS011;6971;50.028;9.258;2022-11-20T12:18:49;34.37;;;22.80;;
13799;SDS011;6971;50.028;9.258;2022-11-20T12:34:53;28.63;;;18.07;;
13799;SDS011;6971;50.028;9.258;2022-11-20T12:39:58;30.03;;;19.03;;
13799;SDS011;6971;50.028;9.258;2022-11-20T12:45:24;24.27;;;16.47;;
13799;SDS011;6971;50.028;9.258;2022-11-20T12:50:38;25.43;;;15.47;;
13799;SDS011;6971;50.028;9.258;2022-11-20T12:55:56;26.53;;;16.87;;
13799;SDS011;6971;50.028;9.258;2022-11-20T13:06:41;36.77;;;23.73;;
13799;SDS011;6971;50.028;9.258;2022-11-20T13:17:09;47.83;;;26.23;;
13799;SDS011;6971;50.028;9.258;2022-11-20T13:22:23;31.63;;;20.83;;
13799;SDS011;6971;50.028;9.258;2022-11-20T13:27:48;29.33;;;19.70;;
13799;SDS011;6971;50.028;9.258;2022-11-20T13:48:41;36.37;;;21.77;;
13799;SDS011;6971;50.028;9.258;2022-11-20T13:53:48;31.70;;;20.43;;
13799;SDS011;6971;50.028;9.258;2022-11-20T13:59:05;32.30;;;19.87;;
13799;SDS011;6971;50.028;9.258;2022-11-20T14:04:28;30.67;;;20.23;;
13799;SDS011;6971;50.028;9.258;2022-11-20T14:09:33;40.10;;;25.63;;
13799;SDS011;6971;50.028;9.258;2022-11-20T14:14:34;40.40;;;27.93;;
13799;SDS011;6971;50.028;9.258;2022-11-20T14:19:37;44.23;;;29.83;;
13799;SDS011;6971;50.028;9.258;2022-11-20T14:24:41;35.33;;;24.23;;
13799;SDS011;6971;50.028;9.258;2022-11-20T14:29:42;38.23;;;25.70;;
13799;SDS011;6971;50.028;9.258;2022-11-20T14:34:45;37.63;;;25.53;;
13799;SDS011;6971;50.028;9.258;2022-11-20T14:39:51;30.33;;;20.40;;
13799;SDS011;6971;50.028;9.258;2022-11-20T14:44:59;33.23;;;21.17;;
13799;SDS011;6971;50.028;9.258;2022-11-20T14:50:01;29.77;;;20.63;;
13799;SDS011;6971;50.028;9.258;2022-11-20T14:55:02;36.20;;;22.90;;
13799;SDS011;6971;50.028;9.258;2022-11-20T15:00:17;37.30;;;24.47;;
13799;SDS011;6971;50.028;9.258;2022-11-20T15:05:22;31.10;;;21.87;;
13799;SDS011;6971;50.028;9.258;2022-11-20T15:10:26;36.60;;;22.97;;
13799;SDS011;6971;50.028;9.258;2022-11-20T15:15:47;33.53;;;21.83;;
13799;SDS011;6971;50.028;9.258;2022-11-20T15:20:49;33.17;;;21.57;;
13799;SDS011;6971;50.028;9.258;2022-11-20T15:25:51;33.27;;;21.73;;
13799;SDS011;6971;50.028;9.258;2022-11-20T15:30:51;31.40;;;21.07;;
13799;SDS011;6971;50.028;9.258;2022-11-20T15:35:53;31.80;;;20.13;;
13799;SDS011;6971;50.028;9.258;2022-11-20T15:40:54;31.80;;;19.87;;
13799;SDS011;6971;50.028;9.258;2022-11-20T15:45:56;33.63;;;20.70;;
13799;SDS011;6971;50.028;9.258;2022-11-20T15:51:05;33.27;;;20.13;;
13799;SDS011;6971;50.028;9.258;2022-11-20T15:56:17;32.07;;;19.80;;
13799;SDS011;6971;50.028;9.258;2022-11-20T16:01:19;34.87;;;20.87;;
13799;SDS011;6971;50.028;9.258;2022-11-20T16:06:22;35.40;;;21.40;;
13799;SDS011;6971;50.028;9.258;2022-11-20T16:11:23;37.37;;;20.93;;
13799;SDS011;6971;50.028;9.258;2022-11-20T16:16:42;27.70;;;18.47;;
13799;SDS011;6971;50.028;9.258;2022-11-20T16:21:44;33.30;;;21.27;;
13799;SDS011;6971;50.028;9.258;2022-11-20T16:26:45;32.33;;;20.23;;
13799;SDS011;6971;50.028;9.258;2022-11-20T16:31:46;33.27;;;20.13;;
13799;SDS011;6971;50.028;9.258;2022-11-20T16:36:50;29.10;;;18.23;;
13799;SDS011;6971;50.028;9.258;2022-11-20T16:41:51;47.80;;;26.03;;
13799;SDS011;6971;50.028;9.258;2022-11-20T16:46:52;39.03;;;24.23;;
13799;SDS011;6971;50.028;9.258;2022-11-20T16:51:52;36.70;;;23.97;;
13799;SDS011;6971;50.028;9.258;2022-11-20T16:56:53;43.23;;;26.40;;
13799;SDS011;6971;50.028;9.258;2022-11-20T17:01:54;48.40;;;28.00;;
13799;SDS011;6971;50.028;9.258;2022-11-20T17:06:55;39.13;;;25.00;;
13799;SDS011;6971;50.028;9.258;2022-11-20T17:11:56;36.10;;;22.10;;
13799;SDS011;6971;50.028;9.258;2022-11-20T17:16:57;25.63;;;16.80;;
13799;SDS011;6971;50.028;9.258;2022-11-20T17:21:58;30.23;;;18.30;;
13799;SDS011;6971;50.028;9.258;2022-11-20T17:26:58;30.03;;;17.37;;
13799;SDS011;6971;50.028;9.258;2022-11-20T17:32:02;30.13;;;18.70;;
13799;SDS011;6971;50.028;9.258;2022-11-20T17:37:17;26.70;;;18.13;;
13799;SDS011;6971;50.028;9.258;2022-11-20T17:42:18;27.03;;;17.27;;
13799;SDS011;6971;50.028;9.258;2022-11-20T17:47:29;24.47;;;16.13;;
13799;SDS011;6971;50.028;9.258;2022-11-20T17:52:30;31.63;;;17.47;;
13799;SDS011;6971;50.028;9.258;2022-11-20T17:57:31;35.10;;;19.60;;
13799;SDS011;6971;50.028;9.258;2022-11-20T18:02:50;43.30;;;28.67;;
13799;SDS011;6971;50.028;9.258;2022-11-20T18:07:51;31.77;;;20.90;;
13799;SDS011;6971;50.028;9.258;2022-11-20T18:12:53;35.50;;;24.20;;
13799;SDS011;6971;50.028;9.258;2022-11-20T18:17:54;35.23;;;22.40;;
13799;SDS011;6971;50.028;9.258;2022-11-20T18:22:55;30.00;;;19.37;;
13799;SDS011;6971;50.028;9.258;2022-11-20T18:27:56;36.27;;;23.57;;
13799;SDS011;6971;50.028;9.258;2022-11-20T18:32:57;30.53;;;18.90;;
13799;SDS011;6971;50.028;9.258;2022-11-20T18:37:57;35.07;;;19.10;;
13799;SDS011;6971;50.028;9.258;2022-11-20T18:42:58;43.53;;;25.97;;
13799;SDS011;6971;50.028;9.258;2022-11-20T18:48:37;33.03;;;19.87;;
13799;SDS011;6971;50.028;9.258;2022-11-20T18:53:38;32.97;;;18.97;;
13799;SDS011;6971;50.028;9.258;2022-11-20T18:58:38;25.73;;;16.73;;
13799;SDS011;6971;50.028;9.258;2022-11-20T19:03:40;32.40;;;20.70;;
13799;SDS011;6971;50.028;9.258;2022-11-20T19:08:42;34.47;;;23.63;;
13799;SDS011;6971;50.028;9.258;2022-11-20T19:13:43;27.83;;;19.07;;
13799;SDS011;6971;50.028;9.258;2022-11-20T19:19:04;22.50;;;13.53;;
13799;SDS011;6971;50.028;9.258;2022-11-20T19:24:06;21.10;;;13.30;;
13799;SDS011;6971;50.028;9.258;2022-11-20T19:29:11;19.17;;;12.40;;
13799;SDS011;6971;50.028;9.258;2022-11-20T19:34:14;24.50;;;18.17;;
13799;SDS011;6971;50.028;9.258;2022-11-20T19:39:17;12.70;;;8.27;;
13799;SDS011;6971;50.028;9.258;2022-11-20T19:44:18;8.97;;;6.23;;
13799;SDS011;6971;50.028;9.258;2022-11-20T19:49:19;15.40;;;9.47;;
13799;SDS011;6971;50.028;9.258;2022-11-20T19:54:34;11.83;;;8.30;;
13799;SDS011;6971;50.028;9.258;2022-11-20T19:59:35;13.67;;;8.63;;
13799;SDS011;6971;50.028;9.258;2022-11-20T20:04:36;7.27;;;5.63;;
13799;SDS011;6971;50.028;9.258;2022-11-20T20:09:37;17.03;;;8.47;;
13799;SDS011;6971;50.028;9.258;2022-11-20T20:14:38;13.53;;;8.37;;
13799;SDS011;6971;50.028;9.258;2022-11-20T20:19:39;6.97;;;5.43;;
13799;SDS011;6971;50.028;9.258;2022-11-20T20:24:41;10.60;;;6.93;;
13799;SDS011;6971;50.028;9.258;2022-11-20T20:29:41;8.33;;;4.50;;
13799;SDS011;6971;50.028;9.258;2022-11-20T20:34:42;5.07;;;4.40;;
13799;SDS011;6971;50.028;9.258;2022-11-20T20:39:43;5.50;;;4.73;;
13799;SDS011;6971;50.028;9.258;2022-11-20T20:44:44;5.93;;;5.33;;
13799;SDS011;6971;50.028;9.258;2022-11-20T20:50:04;5.63;;;4.53;;
13799;SDS011;6971;50.028;9.258;2022-11-20T20:55:15;8.77;;;7.80;;
13799;SDS011;6971;50.028;9.258;2022-11-20T21:00:15;9.77;;;6.47;;
13799;SDS011;6971;50.028;9.258;2022-11-20T21:05:16;12.40;;;7.70;;
13799;SDS011;6971;50.028;9.258;2022-11-20T21:10:17;15.73;;;10.27;;
13799;SDS011;6971;50.028;9.258;2022-11-20T21:15:18;17.93;;;8.63;;
13799;SDS011;6971;50.028;9.258;2022-11-20T21:20:18;11.27;;;7.43;;
13799;SDS011;6971;50.028;9.258;2022-11-20T21:25:38;7.53;;;5.67;;
13799;SDS011;6971;50.028;9.258;2022-11-20T21:31:01;11.20;;;7.50;;
13799;SDS011;6971;50.028;9.258;2022-11-20T21:36:10;9.97;;;5.77;;
13799;SDS011;6971;50.028;9.258;2022-11-20T21:41:13;5.90;;;5.20;;
13799;SDS011;6971;50.028;9.258;2022-11-20T21:46:15;6.30;;;4.67;;
13799;SDS011;6971;50.028;9.258;2022-11-20T21:51:20;10.67;;;6.10;;
13799;SDS011;6971;50.028;9.258;2022-11-20T21:56:23;8.97;;;5.77;;
13799;SDS011;6971;50.028;9.258;2022-11-20T22:01:32;10.37;;;7.10;;
13799;SDS011;6971;50.028;9.258;2022-11-20T22:06:47;8.67;;;6.10;;
13799;SDS011;6971;50.028;9.258;2022-11-20T22:11:48;6.20;;;5.40;;
13799;SDS011;6971;50.028;9.258;2022-11-20T22:16:49;7.10;;;5.13;;
13799;SDS011;6971;50.028;9.258;2022-11-20T22:21:51;6.63;;;4.43;;
13799;SDS011;6971;50.028;9.258;2022-11-20T22:26:52;4.53;;;4.13;;
13799;SDS011;6971;50.028;9.258;2022-11-20T22:31:53;7.13;;;5.30;;
13799;SDS011;6971;50.028;9.258;2022-11-20T22:36:53;7.13;;;4.80;;
13799;SDS011;6971;50.028;9.258;2022-11-20T22:41:54;6.63;;;3.70;;
13799;SDS011;6971;50.028;9.258;2022-11-20T22:46:56;8.00;;;6.23;;
13799;SDS011;6971;50.028;9.258;2022-11-20T22:51:57;5.13;;;3.60;;
13799;SDS011;6971;50.028;9.258;2022-11-20T22:56:57;9.47;;;4.83;;
13799;SDS011;6971;50.028;9.258;2022-11-20T23:01:58;6.20;;;3.53;;
13799;SDS011;6971;50.028;9.258;2022-11-20T23:07:13;8.63;;;4.10;;
13799;SDS011;6971;50.028;9.258;2022-11-20T23:12:14;20.43;;;14.00;;
13799;SDS011;6971;50.028;9.258;2022-11-20T23:17:15;5.30;;;4.37;;
13799;SDS011;6971;50.028;9.258;2022-11-20T23:22:16;23.30;;;13.77;;
13799;SDS011;6971;50.028;9.258;2022-11-20T23:27:17;4.67;;;3.30;;
13799;SDS011;6971;50.028;9.258;2022-11-20T23:32:18;4.37;;;3.40;;
13799;SDS011;6971;50.028;9.258;2022-11-20T23:37:18;5.27;;;4.00;;
13799;SDS011;6971;50.028;9.258;2022-11-20T23:42:34;9.97;;;3.27;;
13799;SDS011;6971;50.028;9.258;2022-11-20T23:47:54;9.07;;;4.03;;
13799;SDS011;6971;50.028;9.258;2022-11-20T23:52:55;7.43;;;3.30;;
13799;SDS011;6971;50.028;9.258;2022-11-20T23:57:56;4.67;;;2.97;;
